Time;durP1;ratioP1;P1;durP2;ratioP2;P2;SDS_P1;SDS_P2;PMS_P1;PMS_P2;Temp;Humidity;BMP_temperature;BMP_pressure;BME280_temperature;BME280_humidity;BME280_pressure;Samples;Min_cycle;Max_cycle;Signal;HPM_P1;HPM_P2
2023/04/20 00:02:20;;;;;;;1999.90;999.90;;;8.80;55.70;;;;;;5017070;28;20184;-73
2023/04/20 00:04:46;;;;;;;1999.90;999.90;;;8.90;43.80;;;;;;5017004;28;20236;-74
2023/04/20 00:07:11;;;;;;;1999.90;999.90;;;9.10;45.50;;;;;;5016859;28;20545;-73
2023/04/20 00:09:37;;;;;;;1999.90;999.90;;;9.00;47.10;;;;;;5016850;28;20172;-73
2023/04/20 00:12:03;;;;;;;1999.90;999.90;;;8.80;47.80;;;;;;5014434;28;20614;-73
2023/04/20 00:14:29;;;;;;;1999.90;999.90;;;8.90;49.10;;;;;;5014536;28;20193;-73
2023/04/20 00:16:55;;;;;;;1999.90;999.90;;;8.70;48.30;;;;;;5014595;28;20788;-73
2023/04/20 00:19:21;;;;;;;1999.90;999.90;;;8.70;47.80;;;;;;5014584;28;20229;-73
2023/04/20 00:21:47;;;;;;;1999.90;999.90;;;8.60;47.70;;;;;;5014803;28;20185;-74
2023/04/20 00:24:13;;;;;;;1999.90;999.90;;;8.60;47.60;;;;;;5015549;28;20830;-74
2023/04/20 00:26:39;;;;;;;1999.90;999.90;;;8.50;47.60;;;;;;5016549;28;20422;-74
2023/04/20 00:29:04;;;;;;;1999.90;999.90;;;8.60;48.40;;;;;;5016533;28;20205;-74
2023/04/20 00:31:30;;;;;;;1999.90;999.90;;;8.50;48.80;;;;;;5016273;28;20168;-73
2023/04/20 00:33:56;;;;;;;1999.90;999.90;;;8.60;49.90;;;;;;5015321;28;20194;-73
2023/04/20 00:36:21;;;;;;;1999.90;999.90;;;8.50;49.00;;;;;;5016171;28;20502;-74
2023/04/20 00:38:47;;;;;;;1999.90;999.90;;;8.60;50.60;;;;;;5016040;28;20194;-74
2023/04/20 00:41:13;;;;;;;1999.90;999.90;;;8.50;50.90;;;;;;5015561;28;20172;-73
2023/04/20 00:43:49;;;;;;;1999.90;999.90;;;8.50;52.00;;;;;;5015963;28;20203;-73
2023/04/20 00:46:15;;;;;;;1999.90;999.90;;;8.60;52.30;;;;;;5014114;28;20191;-73
2023/04/20 00:48:41;;;;;;;1999.90;999.90;;;8.40;52.20;;;;;;5014101;28;20421;-74
2023/04/20 00:51:07;;;;;;;1999.90;999.90;;;8.40;52.10;;;;;;5013819;28;20452;-74
2023/04/20 00:53:33;;;;;;;1999.90;999.90;;;8.50;53.10;;;;;;5013946;28;20929;-74
2023/04/20 00:55:59;;;;;;;1999.90;999.90;;;8.40;53.00;;;;;;5013911;28;20406;-73
2023/04/20 00:58:24;;;;;;;1999.90;999.90;;;8.40;53.60;;;;;;5013872;28;20174;-73
2023/04/20 01:00:50;;;;;;;1999.90;999.90;;;8.40;53.70;;;;;;5013789;28;20176;-73
2023/04/20 01:03:15;;;;;;;1999.90;999.90;;;8.30;54.00;;;;;;5013502;28;20191;-73
2023/04/20 01:05:41;;;;;;;1999.90;999.90;;;8.50;53.60;;;;;;5013546;28;20192;-74
2023/04/20 01:08:07;;;;;;;1999.90;999.90;;;8.50;53.20;;;;;;5013636;28;20168;-73
2023/04/20 01:10:32;;;;;;;1999.90;999.90;;;8.50;52.70;;;;;;5013540;28;20226;-73
2023/04/20 01:12:58;;;;;;;1999.90;999.90;;;8.50;53.10;;;;;;5013215;28;20670;-74
2023/04/20 01:15:23;;;;;;;1999.90;999.90;;;8.60;53.30;;;;;;5013508;28;20226;-73
2023/04/20 01:17:49;;;;;;;1999.90;999.90;;;8.60;53.90;;;;;;5013440;28;20173;-73
2023/04/20 01:20:15;;;;;;;1999.90;999.90;;;8.60;54.50;;;;;;5013352;28;20738;-74
2023/04/20 01:22:47;;;;;;;1999.90;999.90;;;8.60;54.10;;;;;;5014366;28;20200;-74
2023/04/20 01:25:14;;;;;;;1999.90;999.90;;;8.60;54.30;;;;;;5014719;28;20917;-74
2023/04/20 01:27:40;;;;;;;1999.90;999.90;;;8.60;55.60;;;;;;5014986;28;20413;-74
2023/04/20 01:30:07;;;;;;;1999.90;999.90;;;8.60;55.10;;;;;;5014779;28;20415;-74
2023/04/20 01:32:33;;;;;;;1999.90;999.90;;;8.60;55.20;;;;;;5013473;28;20203;-74
2023/04/20 01:34:59;;;;;;;1999.90;999.90;;;8.70;54.60;;;;;;5013135;28;20783;-73
2023/04/20 01:37:25;;;;;;;1999.90;999.90;;;8.70;55.10;;;;;;5013087;28;20442;-73
2023/04/20 01:39:50;;;;;;;1999.90;999.90;;;8.80;55.30;;;;;;5013116;28;20822;-73
2023/04/20 01:42:16;;;;;;;1999.90;999.90;;;8.90;71.90;;;;;;5012949;28;20524;-73
2023/04/20 01:44:41;;;;;;;1999.90;999.90;;;8.80;56.20;;;;;;5012983;28;20207;-73
2023/04/20 01:47:07;;;;;;;1999.90;999.90;;;8.90;54.60;;;;;;5013003;28;20166;-74
2023/04/20 01:49:33;;;;;;;1999.90;999.90;;;8.90;54.40;;;;;;5012555;28;20232;-73
2023/04/20 01:51:58;;;;;;;1999.90;999.90;;;8.90;53.80;;;;;;5012145;28;20176;-74
2023/04/20 01:54:24;;;;;;;1999.90;999.90;;;8.90;53.40;;;;;;5012652;28;20195;-74
2023/04/20 01:56:49;;;;;;;1999.90;999.90;;;8.90;53.20;;;;;;5012862;28;20176;-73
2023/04/20 01:59:15;;;;;;;1999.90;999.90;;;8.90;52.30;;;;;;5012850;28;20647;-73
2023/04/20 02:01:40;;;;;;;1999.90;999.90;;;8.90;52.20;;;;;;5012599;28;20539;-73
2023/04/20 02:04:06;;;;;;;1999.90;999.90;;;8.90;52.10;;;;;;5012556;28;20192;-73
2023/04/20 02:06:32;;;;;;;1999.90;999.90;;;8.80;51.90;;;;;;5012647;28;20677;-73
2023/04/20 02:08:57;;;;;;;1999.90;999.90;;;8.90;51.80;;;;;;5012534;28;20388;-73
2023/04/20 02:11:23;;;;;;;1999.90;999.90;;;8.90;51.70;;;;;;5012313;28;20199;-73
2023/04/20 02:13:48;;;;;;;1999.90;999.90;;;9.00;52.00;;;;;;5012521;28;20256;-73
2023/04/20 02:16:14;;;;;;;1999.90;999.90;;;9.00;52.10;;;;;;5012491;28;20184;-74
2023/04/20 02:18:40;;;;;;;1999.90;999.90;;;9.00;52.10;;;;;;5012474;28;20199;-73
2023/04/20 02:21:05;;;;;;;1999.90;999.90;;;9.00;51.80;;;;;;5012159;28;20809;-73
2023/04/20 02:23:31;;;;;;;1999.90;999.90;;;9.00;52.30;;;;;;5012837;28;20195;-74
2023/04/20 02:25:57;;;;;;;1999.90;999.90;;;9.00;52.60;;;;;;5014222;28;20685;-74
2023/04/20 02:28:22;;;;;;;1999.90;999.90;;;9.10;52.50;;;;;;5014186;28;20176;-74
2023/04/20 02:30:48;;;;;;;1999.90;999.90;;;9.10;52.50;;;;;;5012520;28;20669;-73
2023/04/20 02:33:13;;;;;;;1999.90;999.90;;;9.10;52.40;;;;;;5011971;28;20694;-73
2023/04/20 02:35:39;;;;;;;1999.90;999.90;;;9.10;51.80;;;;;;5012277;28;20180;-73
2023/04/20 02:38:05;;;;;;;1999.90;999.90;;;9.30;51.80;;;;;;5012131;28;20228;-73
2023/04/20 02:40:30;;;;;;;1999.90;999.90;;;9.00;52.20;;;;;;5012221;28;20711;-73
2023/04/20 02:42:56;;;;;;;1999.90;999.90;;;9.00;53.00;;;;;;5011726;28;20222;-73
2023/04/20 02:45:21;;;;;;;1999.90;999.90;;;9.00;53.10;;;;;;5012024;28;20216;-73
2023/04/20 02:47:47;;;;;;;1999.90;999.90;;;9.10;52.80;;;;;;5012048;28;20171;-73
2023/04/20 02:50:14;;;;;;;1999.90;999.90;;;8.90;51.80;;;;;;5012144;28;20533;-73
2023/04/20 02:52:39;;;;;;;1999.90;999.90;;;9.10;50.50;;;;;;5011694;28;20185;-73
2023/04/20 02:55:05;;;;;;;1999.90;999.90;;;9.00;51.30;;;;;;5012151;28;20427;-73
2023/04/20 02:57:31;;;;;;;1999.90;999.90;;;9.10;49.40;;;;;;5012120;28;20180;-73
2023/04/20 02:59:56;;;;;;;1999.90;999.90;;;9.10;49.30;;;;;;5012034;28;20807;-73
2023/04/20 03:02:22;;;;;;;1999.90;999.90;;;9.00;63.60;;;;;;5013965;28;20638;-73
2023/04/20 03:04:47;;;;;;;1999.90;999.90;;;9.10;49.50;;;;;;5015837;28;20206;-74
2023/04/20 03:07:14;;;;;;;1999.90;999.90;;;8.90;49.10;;;;;;5015889;28;20167;-74
2023/04/20 03:09:40;;;;;;;1999.90;999.90;;;8.90;48.80;;;;;;5016360;28;20248;-73
2023/04/20 03:12:05;;;;;;;1999.90;999.90;;;9.00;48.40;;;;;;5015493;28;20630;-74
2023/04/20 03:14:31;;;;;;;1999.90;999.90;;;8.90;48.80;;;;;;5015843;28;20187;-74
2023/04/20 03:16:57;;;;;;;1999.90;999.90;;;8.90;48.40;;;;;;5015751;28;20411;-74
2023/04/20 03:19:23;;;;;;;1999.90;999.90;;;8.80;48.40;;;;;;5016574;28;20263;-74
2023/04/20 03:21:48;;;;;;;1999.90;999.90;;;8.80;48.50;;;;;;5016304;28;20183;-74
2023/04/20 03:24:15;;;;;;;1999.90;999.90;;;8.80;49.20;;;;;;5016284;28;20553;-74
2023/04/20 03:26:41;;;;;;;1999.90;999.90;;;8.80;51.00;;;;;;5016718;28;20630;-74
2023/04/20 03:29:06;;;;;;;1999.90;999.90;;;8.80;52.00;;;;;;5016708;28;20414;-73
2023/04/20 03:31:32;;;;;;;1999.90;999.90;;;8.80;50.40;;;;;;5016556;28;20406;-72
2023/04/20 03:33:57;;;;;;;1999.90;999.90;;;8.90;51.30;;;;;;5016578;28;20208;-74
2023/04/20 03:36:23;;;;;;;1999.90;999.90;;;8.80;50.20;;;;;;5016248;28;20168;-74
2023/04/20 03:38:49;;;;;;;1999.90;999.90;;;8.90;51.50;;;;;;5016551;28;20172;-74
2023/04/20 03:41:14;;;;;;;1999.90;999.90;;;8.90;49.60;;;;;;5015009;28;20542;-74
2023/04/20 03:43:40;;;;;;;1999.90;999.90;;;8.80;48.30;;;;;;5015119;28;20227;-74
2023/04/20 03:46:06;;;;;;;1999.90;999.90;;;8.80;47.60;;;;;;5015094;28;20703;-74
2023/04/20 03:48:32;;;;;;;1999.90;999.90;;;8.90;47.20;;;;;;5015219;28;20176;-73
2023/04/20 03:50:58;;;;;;;1999.90;999.90;;;8.70;47.20;;;;;;5014700;28;20178;-73
2023/04/20 03:53:25;;;;;;;1999.90;999.90;;;8.70;47.40;;;;;;5015004;28;20430;-74
2023/04/20 03:55:50;;;;;;;1999.90;999.90;;;8.60;48.20;;;;;;5015114;28;20172;-73
2023/04/20 03:58:16;;;;;;;1999.90;999.90;;;8.60;48.70;;;;;;5015168;28;20414;-73
2023/04/20 04:00:42;;;;;;;1999.90;999.90;;;8.60;49.70;;;;;;5014982;28;20164;-74
2023/04/20 04:03:08;;;;;;;1999.90;999.90;;;8.60;51.70;;;;;;5014529;28;20326;-73
2023/04/20 04:05:34;;;;;;;1999.90;999.90;;;8.50;53.80;;;;;;5014778;28;20678;-73
2023/04/20 04:07:59;;;;;;;1999.90;999.90;;;8.60;54.70;;;;;;5014875;28;20491;-73
2023/04/20 04:10:25;;;;;;;1999.90;999.90;;;8.70;56.50;;;;;;5014884;28;20626;-74
2023/04/20 04:12:51;;;;;;;1999.90;999.90;;;8.60;58.40;;;;;;5013693;28;20185;-74
2023/04/20 04:15:18;;;;;;;1999.90;999.90;;;8.40;60.60;;;;;;5014601;28;21162;-74
2023/04/20 04:17:44;;;;;;;1999.90;999.90;;;8.50;65.90;;;;;;5014700;28;20263;-74
2023/04/20 04:20:10;;;;;;;1999.90;999.90;;;8.50;69.50;;;;;;5014499;28;20418;-74
2023/04/20 04:22:36;;;;;;;1999.90;999.90;;;8.40;76.20;;;;;;5014198;28;21083;-74
2023/04/20 04:25:02;;;;;;;1999.90;999.90;;;8.40;84.90;;;;;;5014426;28;20458;-74
2023/04/20 04:27:33;;;;;;;1999.90;999.90;;;8.40;91.20;;;;;;5014494;28;20850;-74
2023/04/20 04:30:05;;;;;;;1999.90;999.90;;;8.40;92.00;;;;;;5014424;28;20414;-74
2023/04/20 04:32:33;;;;;;;1999.90;999.90;;;8.30;92.30;;;;;;5014069;28;20429;-73
2023/04/20 04:35:00;;;;;;;1999.90;999.90;;;8.40;90.90;;;;;;5014278;28;20419;-74
2023/04/20 04:37:26;;;;;;;1999.90;999.90;;;8.40;91.70;;;;;;5014283;28;20414;-74
2023/04/20 04:39:51;;;;;;;1999.90;999.90;;;8.40;92.60;;;;;;5014238;28;20782;-73
2023/04/20 04:42:17;;;;;;;1999.90;999.90;;;8.70;94.20;;;;;;5013645;28;20455;-73
2023/04/20 04:44:43;;;;;;;1999.90;999.90;;;8.60;94.60;;;;;;5014000;28;20458;-74
2023/04/20 04:47:10;;;;;;;1999.90;999.90;;;8.60;96.50;;;;;;5014453;28;20173;-74
2023/04/20 04:49:36;;;;;;;1999.90;999.90;;;8.50;99.50;;;;;;5014638;28;20772;-74
2023/04/20 04:52:02;;;;;;;1999.90;999.90;;;8.40;97.30;;;;;;5015837;28;20419;-74
2023/04/20 04:54:27;;;;;;;1999.90;999.90;;;8.40;99.80;;;;;;5014973;28;20202;-74
2023/04/20 04:56:53;;;;;;;1999.90;999.90;;;8.40;99.90;;;;;;5015340;28;20203;-74
2023/04/20 04:59:18;;;;;;;1999.90;999.90;;;8.50;99.90;;;;;;5015466;28;20263;-74
2023/04/20 05:01:44;;;;;;;1999.90;999.90;;;8.50;99.90;;;;;;5014460;28;20262;-74
2023/04/20 05:04:09;;;;;;;1999.90;999.90;;;8.50;99.90;;;;;;5014124;28;20206;-73
2023/04/20 05:06:35;;;;;;;1999.90;999.90;;;8.50;99.90;;;;;;5013667;28;20180;-74
2023/04/20 05:09:01;;;;;;;1999.90;999.90;;;8.50;99.90;;;;;;5013678;28;20616;-74
2023/04/20 05:11:26;;;;;;;1999.90;999.90;;;8.60;99.90;;;;;;5013431;28;20708;-73
2023/04/20 05:13:52;;;;;;;1999.90;999.90;;;8.30;99.90;;;;;;5013534;28;20196;-73
2023/04/20 05:16:17;;;;;;;1999.90;999.90;;;8.30;99.90;;;;;;5014336;28;20206;-73
2023/04/20 05:18:43;;;;;;;1999.90;999.90;;;8.40;99.90;;;;;;5013468;28;20269;-73
2023/04/20 05:21:08;;;;;;;1999.90;999.90;;;8.40;99.90;;;;;;5013213;28;20174;-73
2023/04/20 05:23:34;;;;;;;1999.90;999.90;;;8.40;99.90;;;;;;5013417;28;20196;-73
2023/04/20 05:26:00;;;;;;;1999.90;999.90;;;8.40;99.90;;;;;;5013174;28;20203;-73
2023/04/20 05:28:26;;;;;;;1999.90;999.90;;;8.30;99.90;;;;;;5013362;28;20411;-73
2023/04/20 05:30:53;;;;;;;1999.90;999.90;;;8.20;99.90;;;;;;5013059;28;20171;-73
2023/04/20 05:33:19;;;;;;;1999.90;999.90;;;7.90;99.90;;;;;;5013033;28;20189;-73
2023/04/20 05:35:45;;;;;;;1999.90;999.90;;;8.00;99.90;;;;;;5013137;28;20419;-74
2023/04/20 05:38:11;;;;;;;1999.90;999.90;;;8.00;99.90;;;;;;5012801;28;20179;-73
2023/04/20 05:40:36;;;;;;;1999.90;999.90;;;8.10;99.90;;;;;;5013158;28;20426;-73
2023/04/20 05:43:02;;;;;;;1999.90;999.90;;;8.10;99.90;;;;;;5012588;28;20219;-73
2023/04/20 05:45:28;;;;;;;1999.90;999.90;;;8.20;99.90;;;;;;5012903;28;20207;-73
2023/04/20 05:47:55;;;;;;;1999.90;999.90;;;8.20;99.90;;;;;;5012973;28;20175;-73
2023/04/20 05:50:24;;;;;;;1999.90;999.90;;;8.20;99.90;;;;;;5012980;28;20175;-74
2023/04/20 05:52:51;;;;;;;1999.90;999.90;;;8.30;99.90;;;;;;5012625;28;20519;-73
2023/04/20 05:55:17;;;;;;;1999.90;999.90;;;8.30;99.90;;;;;;5013469;28;20465;-74
2023/04/20 05:57:43;;;;;;;1999.90;999.90;;;8.40;99.90;;;;;;5013599;28;20505;-74
2023/04/20 06:00:13;;;;;;;1999.90;999.90;;;8.30;99.90;;;;;;5013760;28;20775;-73
2023/04/20 06:02:39;;;;;;;1999.90;999.90;;;8.20;99.90;;;;;;5012438;28;20483;-73
2023/04/20 06:05:05;;;;;;;1999.90;999.90;;;8.10;99.90;;;;;;5012668;28;20834;-74
2023/04/20 06:07:31;;;;;;;1999.90;999.90;;;8.20;99.90;;;;;;5012936;28;20407;-73
2023/04/20 06:09:56;;;;;;;1999.90;999.90;;;8.20;99.90;;;;;;5012662;28;20427;-73
2023/04/20 06:12:22;;;;;;;1999.90;999.90;;;8.30;99.90;;;;;;5012395;28;20185;-73
2023/04/20 06:14:48;;;;;;;1999.90;999.90;;;8.10;99.90;;;;;;5012671;28;20372;-73
2023/04/20 06:17:14;;;;;;;1999.90;999.90;;;8.10;99.90;;;;;;5012683;28;20651;-73
2023/04/20 06:19:39;;;;;;;1999.90;999.90;;;8.10;99.90;;;;;;5012537;28;20459;-73
2023/04/20 06:22:08;;;;;;;1999.90;999.90;;;8.10;99.90;;;;;;5012171;28;20193;-74
2023/04/20 06:24:34;;;;;;;1999.90;999.90;;;8.00;99.90;;;;;;5012319;28;20230;-73
2023/04/20 06:27:00;;;;;;;1999.90;999.90;;;8.10;99.90;;;;;;5012440;28;20509;-74
2023/04/20 06:29:27;;;;;;;1999.90;999.90;;;7.90;99.90;;;;;;5012231;28;20417;-74
2023/04/20 06:31:52;;;;;;;1999.90;999.90;;;7.90;99.90;;;;;;5012157;28;20407;-74
2023/04/20 06:34:18;;;;;;;1999.90;999.90;;;8.00;99.90;;;;;;5012253;28;20439;-74
2023/04/20 06:36:43;;;;;;;1999.90;999.90;;;8.10;99.90;;;;;;5011757;28;20179;-74
2023/04/20 06:39:12;;;;;;;1999.90;999.90;;;8.20;99.90;;;;;;5012278;28;20172;-73
2023/04/20 06:41:38;;;;;;;1999.90;999.90;;;8.20;99.90;;;;;;5011995;28;20178;-73
2023/04/20 06:44:04;;;;;;;1999.90;999.90;;;8.30;99.90;;;;;;5011932;28;20908;-73
2023/04/20 06:46:30;;;;;;;1999.90;999.90;;;8.70;99.90;;;;;;5012232;28;20195;-74
2023/04/20 06:48:57;;;;;;;1999.90;999.90;;;8.40;99.90;;;;;;5012215;28;20909;-74
2023/04/20 06:51:23;;;;;;;1999.90;999.90;;;8.40;99.90;;;;;;5011779;28;20462;-74
2023/04/20 06:53:49;;;;;;;1999.90;999.90;;;8.50;99.90;;;;;;5012107;28;20418;-74
2023/04/20 06:56:14;;;;;;;1999.90;999.90;;;8.50;99.90;;;;;;5012087;28;20418;-74
2023/04/20 06:58:40;;;;;;;1999.90;999.90;;;8.60;99.90;;;;;;5011978;28;20176;-73
2023/04/20 07:01:06;;;;;;;1999.90;999.90;;;8.60;99.90;;;;;;5011827;28;20172;-73
2023/04/20 07:03:31;;;;;;;1999.90;999.90;;;8.60;99.90;;;;;;5011937;28;20192;-73
2023/04/20 07:05:57;;;;;;;1999.90;999.90;;;8.30;99.90;;;;;;5011975;28;20199;-73
2023/04/20 07:08:22;;;;;;;1999.90;999.90;;;8.10;99.90;;;;;;5012036;28;20172;-73
2023/04/20 07:10:48;;;;;;;1999.90;999.90;;;8.00;99.90;;;;;;5011939;28;20171;-73
2023/04/20 07:13:13;;;;;;;1999.90;999.90;;;8.10;99.90;;;;;;5011528;28;20263;-73
2023/04/20 07:15:39;;;;;;;1999.90;999.90;;;8.10;99.90;;;;;;5011909;28;20715;-73
2023/04/20 07:18:05;;;;;;;1999.90;999.90;;;8.10;99.90;;;;;;5011925;28;20171;-73
2023/04/20 07:20:30;;;;;;;1999.90;999.90;;;8.20;99.90;;;;;;5011832;28;20199;-74
2023/04/20 07:22:56;;;;;;;1999.90;999.90;;;8.20;99.90;;;;;;5011523;28;20246;-74
2023/04/20 07:25:23;;;;;;;1999.90;999.90;;;8.30;99.90;;;;;;5011739;28;20649;-74
2023/04/20 07:27:48;;;;;;;1999.90;999.90;;;8.30;99.90;;;;;;5011741;28;20604;-73
2023/04/20 07:30:14;;;;;;;1999.90;999.90;;;8.40;99.90;;;;;;5011771;28;20414;-74
2023/04/20 07:32:40;;;;;;;1999.90;999.90;;;8.40;99.90;;;;;;5011512;28;20187;-73
2023/04/20 07:35:06;;;;;;;1999.90;999.90;;;8.30;99.90;;;;;;5012016;28;20211;-73
2023/04/20 07:37:32;;;;;;;1999.90;999.90;;;8.40;99.90;;;;;;5011753;28;20175;-73
2023/04/20 07:39:58;;;;;;;1999.90;999.90;;;8.50;99.90;;;;;;5011961;28;20985;-74
2023/04/20 07:42:24;;;;;;;1999.90;999.90;;;8.70;99.90;;;;;;5012496;28;20462;-74
2023/04/20 07:44:50;;;;;;;1999.90;999.90;;;8.60;99.90;;;;;;5012943;28;20489;-74
2023/04/20 07:47:15;;;;;;;1999.90;999.90;;;8.60;99.90;;;;;;5013006;28;20204;-74
2023/04/20 07:49:42;;;;;;;1999.90;999.90;;;8.50;99.90;;;;;;5015866;28;20171;-74
2023/04/20 07:52:08;;;;;;;1999.90;999.90;;;;;;;;;;5015089;28;20179;-74
2023/04/20 07:54:33;;;;;;;1999.90;999.90;;;8.80;99.90;;;;;;5015089;28;20403;-74
2023/04/20 07:57:00;;;;;;;1999.90;999.90;;;8.90;99.90;;;;;;5014986;28;20468;-74
2023/04/20 07:59:26;;;;;;;1999.90;999.90;;;9.00;99.90;;;;;;5015002;28;20168;-74
2023/04/20 08:01:51;;;;;;;1999.90;999.90;;;9.10;99.90;;;;;;5001086;28;20473;-74
2023/04/20 08:04:17;;;;;;;1999.90;999.90;;;9.10;99.90;;;;;;4995054;28;20204;-74
2023/04/20 08:06:43;;;;;;;1999.90;999.90;;;9.10;99.90;;;;;;4995256;28;20173;-74
2023/04/20 08:09:08;;;;;;;1999.90;999.90;;;9.10;99.90;;;;;;4995243;28;20219;-74
2023/04/20 08:11:34;;;;;;;1999.90;999.90;;;9.00;99.90;;;;;;4994811;28;20169;-74
2023/04/20 08:14:00;;;;;;;1999.90;999.90;;;9.20;99.90;;;;;;4995129;28;20394;-74
2023/04/20 08:16:26;;;;;;;1999.90;999.90;;;9.20;99.90;;;;;;4995026;28;20645;-74
2023/04/20 08:18:51;;;;;;;1999.90;999.90;;;9.10;99.90;;;;;;4995043;28;20890;-74
2023/04/20 08:21:17;;;;;;;1999.90;999.90;;;9.10;99.90;;;;;;4994736;28;20176;-74
2023/04/20 08:23:42;;;;;;;1999.90;999.90;;;9.10;99.90;;;;;;4994916;28;20221;-74
2023/04/20 08:26:13;;;;;;;1999.90;999.90;;;9.10;99.90;;;;;;4994751;28;20192;-74
2023/04/20 08:28:38;;;;;;;1999.90;999.90;;;9.20;99.90;;;;;;4994869;28;20635;-74
2023/04/20 08:31:04;;;;;;;1999.90;999.90;;;9.10;99.90;;;;;;4994512;28;20412;-74
2023/04/20 08:33:30;;;;;;;1999.90;999.90;;;9.00;99.90;;;;;;4994713;28;20193;-74
2023/04/20 08:35:55;;;;;;;1999.90;999.90;;;9.00;99.90;;;;;;4994744;28;20201;-74
2023/04/20 08:38:21;;;;;;;1999.90;999.90;;;9.00;99.90;;;;;;4994656;28;20169;-74
2023/04/20 08:40:47;;;;;;;1999.90;999.90;;;9.00;99.90;;;;;;4994603;28;20248;-74
2023/04/20 08:43:12;;;;;;;1999.90;999.90;;;9.00;99.90;;;;;;4994222;28;20213;-74
2023/04/20 08:45:41;;;;;;;1999.90;999.90;;;9.10;99.90;;;;;;4994467;28;20196;-74
2023/04/20 08:48:10;;;;;;;1999.90;999.90;;;9.00;99.90;;;;;;4994331;28;20172;-74
2023/04/20 08:50:39;;;;;;;1999.90;999.90;;;9.10;99.90;;;;;;4994203;28;20416;-73
2023/04/20 08:53:05;;;;;;;1999.90;999.90;;;9.30;99.90;;;;;;4994041;28;20429;-74
2023/04/20 08:55:31;;;;;;;1999.90;999.90;;;9.40;99.90;;;;;;4994345;28;20431;-74
2023/04/20 08:57:57;;;;;;;1999.90;999.90;;;9.50;99.90;;;;;;4994304;28;20801;-73
2023/04/20 09:00:22;;;;;;;1999.90;999.90;;;9.60;99.90;;;;;;4993829;28;20412;-74
2023/04/20 09:02:53;;;;;;;1999.90;999.90;;;9.70;99.90;;;;;;4993908;28;20192;-74
2023/04/20 09:05:29;;;;;;;1999.90;999.90;;;9.90;99.90;;;;;;4994155;28;20205;-74
2023/04/20 09:07:57;;;;;;;1999.90;999.90;;;10.00;99.90;;;;;;4994127;28;20428;-74
2023/04/20 09:10:24;;;;;;;1999.90;999.90;;;10.00;99.90;;;;;;4993991;28;20447;-74
2023/04/20 09:12:50;;;;;;;1999.90;999.90;;;10.10;99.90;;;;;;4993719;28;21109;-74
2023/04/20 09:15:30;;;;;;;1999.90;999.90;;;10.10;99.90;;;;;;4994108;28;20427;-74
2023/04/20 09:17:56;;;;;;;1999.90;999.90;;;10.30;99.90;;;;;;4993968;28;20409;-74
2023/04/20 09:20:33;;;;;;;1999.90;999.90;;;10.10;99.90;;;;;;4993804;28;20547;-74
2023/04/20 09:23:16;;;;;;;1999.90;999.90;;;10.20;99.90;;;;;;4993489;28;20467;-74
2023/04/20 09:25:44;;;;;;;1999.90;999.90;;;10.20;99.90;;;;;;4993705;28;20540;-74
2023/04/20 09:28:12;;;;;;;1999.90;999.90;;;10.20;99.90;;;;;;4993660;28;20408;-74
2023/04/20 09:30:43;;;;;;;1999.90;999.90;;;10.10;99.90;;;;;;4993694;28;20462;-74
2023/04/20 09:33:11;;;;;;;1999.90;999.90;;;10.30;99.90;;;;;;4993444;28;20508;-75
2023/04/20 09:35:39;;;;;;;1999.90;999.90;;;10.10;99.90;;;;;;4993651;28;20415;-74
2023/04/20 09:38:06;;;;;;;1999.90;999.90;;;10.00;99.90;;;;;;4993537;28;20405;-73
2023/04/20 09:40:32;;;;;;;1999.90;999.90;;;10.30;99.90;;;;;;4993502;28;20405;-73
2023/04/20 09:43:07;;;;;;;1999.90;999.90;;;10.10;99.90;;;;;;4993012;28;20455;-74
2023/04/20 09:45:34;;;;;;;1999.90;999.90;;;10.10;99.90;;;;;;4993417;28;20455;-74
2023/04/20 09:48:00;;;;;;;1999.90;999.90;;;10.20;99.90;;;;;;4993507;28;20487;-74
2023/04/20 09:50:26;;;;;;;1999.90;999.90;;;10.40;99.90;;;;;;4994714;28;20402;-74
2023/04/20 09:52:52;;;;;;;1999.90;999.90;;;10.60;99.90;;;;;;4993671;28;20425;-74
2023/04/20 09:55:18;;;;;;;1999.90;999.90;;;10.80;99.90;;;;;;4993441;28;20410;-74
2023/04/20 09:57:44;;;;;;;1999.90;999.90;;;10.80;99.90;;;;;;4993237;28;20410;-74
2023/04/20 10:00:11;;;;;;;1999.90;999.90;;;11.10;99.90;;;;;;4993309;28;20197;-75
2023/04/20 10:02:37;;;;;;;1999.90;999.90;;;11.20;99.90;;;;;;4994121;28;20520;-73
2023/04/20 10:05:03;;;;;;;1999.90;999.90;;;11.30;99.90;;;;;;4994288;28;20512;-73
2023/04/20 10:07:33;;;;;;;1999.90;999.90;;;11.50;99.90;;;;;;4994202;28;20466;-74
2023/04/20 10:10:09;;;;;;;1999.90;999.90;;;11.70;99.90;;;;;;4994328;28;20409;-74
2023/04/20 10:12:47;;;;;;;1999.90;999.90;;;11.80;99.90;;;;;;4992219;28;20428;-74
2023/04/20 10:15:13;;;;;;;1999.90;999.90;;;11.70;99.90;;;;;;4993986;28;20505;-75
2023/04/20 10:17:39;;;;;;;1999.90;999.90;;;11.70;99.90;;;;;;4994192;28;20493;-74
2023/04/20 10:20:21;;;;;;;1999.90;999.90;;;11.50;99.90;;;;;;4995208;28;20222;-73
2023/04/20 10:22:47;;;;;;;1999.90;999.90;;;11.00;99.90;;;;;;4993964;28;20315;-73
2023/04/20 10:25:22;;;;;;;1999.90;999.90;;;10.70;99.90;;;;;;4994639;28;20492;-73
2023/04/20 10:27:56;;;;;;;1999.90;999.90;;;10.50;99.90;;;;;;4994846;28;20172;-73
2023/04/20 10:30:23;;;;;;;1999.90;999.90;;;10.20;99.90;;;;;;4995602;28;20799;-73
2023/04/20 10:32:49;;;;;;;1999.90;999.90;;;10.30;99.90;;;;;;4994967;28;20479;-74
2023/04/20 10:35:15;;;;;;;1999.90;999.90;;;10.50;99.90;;;;;;4994031;28;20412;-73
2023/04/20 10:37:50;;;;;;;1999.90;999.90;;;10.60;99.90;;;;;;4992671;28;20416;-73
2023/04/20 10:40:24;;;;;;;1999.90;999.90;;;10.70;99.90;;;;;;4992685;28;20161;-73
2023/04/20 10:42:49;;;;;;;1999.90;999.90;;;10.80;99.90;;;;;;4992133;28;20533;-73
2023/04/20 10:45:15;;;;;;;1999.90;999.90;;;10.90;99.90;;;;;;4994497;28;21018;-73
2023/04/20 10:47:41;;;;;;;1999.90;999.90;;;11.20;99.90;;;;;;4992448;28;20174;-73
2023/04/20 10:50:17;;;;;;;1999.90;999.90;;;11.50;99.90;;;;;;4992560;28;20259;-73
2023/04/20 10:52:43;;;;;;;1999.90;999.90;;;11.80;99.90;;;;;;4992189;28;20181;-73
2023/04/20 10:55:23;;;;;;;1999.90;999.90;;;12.10;99.90;;;;;;4992577;28;20488;-73
2023/04/20 10:57:49;;;;;;;1999.90;999.90;;;12.40;99.90;;;;;;4992459;28;20222;-73
2023/04/20 11:00:20;;;;;;;1999.90;999.90;;;12.50;99.90;;;;;;4992434;28;20414;-72
2023/04/20 11:02:50;;;;;;;1999.90;999.90;;;12.60;99.90;;;;;;4992009;28;20430;-73
2023/04/20 11:05:17;;;;;;;1999.90;999.90;;;12.70;99.90;;;;;;4992367;28;20464;-73
2023/04/20 11:07:59;;;;;;;1999.90;999.90;;;12.90;99.90;;;;;;4992421;28;20416;-73
2023/04/20 11:10:40;;;;;;;1999.90;999.90;;;12.90;99.90;;;;;;4992441;28;20428;-72
2023/04/20 11:13:06;;;;;;;1999.90;999.90;;;12.90;99.90;;;;;;4992044;28;20444;-72
2023/04/20 11:15:33;;;;;;;1999.90;999.90;;;12.60;99.90;;;;;;4992308;28;20460;-73
2023/04/20 11:18:06;;;;;;;1999.90;999.90;;;12.20;99.90;;;;;;4992350;28;20414;-73
2023/04/20 11:20:32;;;;;;;1999.90;999.90;;;12.00;99.90;;;;;;4992367;28;20405;-73
2023/04/20 11:22:58;;;;;;;1999.90;999.90;;;12.10;99.90;;;;;;4993713;28;20430;-73
2023/04/20 11:25:24;;;;;;;1999.90;999.90;;;12.40;99.90;;;;;;4995919;28;20205;-73
2023/04/20 11:27:50;;;;;;;1999.90;999.90;;;12.70;99.90;;;;;;4995965;28;20825;-73
2023/04/20 11:30:15;;;;;;;1999.90;999.90;;;13.00;99.90;;;;;;4996094;28;20586;-73
2023/04/20 11:32:41;;;;;;;1999.90;999.90;;;13.40;99.90;;;;;;4996241;28;20193;-73
2023/04/20 11:35:09;;;;;;;1999.90;999.90;;;13.80;99.90;;;;;;4996396;28;20181;-74
2023/04/20 11:37:49;;;;;;;1999.90;999.90;;;13.90;99.90;;;;;;4996508;28;20182;-74
2023/04/20 11:40:16;;;;;;;1999.90;999.90;;;14.00;99.90;;;;;;4996788;28;20568;-74
2023/04/20 11:42:42;;;;;;;1999.90;999.90;;;14.20;99.90;;;;;;4995603;28;20503;-73
2023/04/20 11:45:08;;;;;;;1999.90;999.90;;;14.60;99.90;;;;;;4995584;28;20458;-73
2023/04/20 11:47:33;;;;;;;1999.90;999.90;;;14.90;99.90;;;;;;4995636;28;20165;-73
2023/04/20 11:50:00;;;;;;;1999.90;999.90;;;14.90;99.90;;;;;;4995575;28;20424;-73
2023/04/20 11:52:26;;;;;;;1999.90;999.90;;;14.90;99.90;;;;;;4995172;28;20637;-73
2023/04/20 11:54:51;;;;;;;1999.90;999.90;;;14.60;99.90;;;;;;4995519;28;20823;-73
2023/04/20 11:57:17;;;;;;;1999.90;999.90;;;14.30;99.90;;;;;;4995452;28;20445;-73
2023/04/20 11:59:46;;;;;;;1999.90;999.90;;;14.00;99.90;;;;;;4995434;28;20205;-73
2023/04/20 12:02:12;;;;;;;1999.90;999.90;;;13.60;99.90;;;;;;4995052;28;20196;-73
2023/04/20 12:04:38;;;;;;;1999.90;999.90;;;13.60;99.90;;;;;;4998706;28;20499;-73